sensor_id;sensor_type;location;lat;lon;timestamp;temperature;humidity
13426;DHT22;6785;57.918;12.530;2022-12-29T00:00:15;5.30;99.90
13426;DHT22;6785;57.918;12.530;2022-12-29T00:02:43;5.30;99.90
13426;DHT22;6785;57.918;12.530;2022-12-29T00:05:10;5.30;99.90
13426;DHT22;6785;57.918;12.530;2022-12-29T00:07:36;5.30;99.90
13426;DHT22;6785;57.918;12.530;2022-12-29T00:10:04;5.30;99.90
13426;DHT22;6785;57.918;12.530;2022-12-29T00:12:31;5.40;99.90
13426;DHT22;6785;57.918;12.530;2022-12-29T00:15:11;5.30;99.90
13426;DHT22;6785;57.918;12.530;2022-12-29T00:17:57;5.30;99.90
13426;DHT22;6785;57.918;12.530;2022-12-29T00:20:23;5.30;99.90
13426;DHT22;6785;57.918;12.530;2022-12-29T00:23:08;5.30;99.90
13426;DHT22;6785;57.918;12.530;2022-12-29T00:25:53;5.30;99.90
13426;DHT22;6785;57.918;12.530;2022-12-29T00:28:37;5.30;99.90
13426;DHT22;6785;57.918;12.530;2022-12-29T00:31:21;5.30;99.90
13426;DHT22;6785;57.918;12.530;2022-12-29T00:34:09;5.30;99.90
13426;DHT22;6785;57.918;12.530;2022-12-29T00:36:54;5.30;99.90
13426;DHT22;6785;57.918;12.530;2022-12-29T00:39:21;5.40;99.90
13426;DHT22;6785;57.918;12.530;2022-12-29T00:42:06;5.40;99.90
13426;DHT22;6785;57.918;12.530;2022-12-29T00:44:50;5.30;99.90
13426;DHT22;6785;57.918;12.530;2022-12-29T00:47:17;5.30;99.90
13426;DHT22;6785;57.918;12.530;2022-12-29T00:49:45;5.30;99.90
13426;DHT22;6785;57.918;12.530;2022-12-29T00:52:12;5.30;99.90
13426;DHT22;6785;57.918;12.530;2022-12-29T00:54:40;5.30;99.90
13426;DHT22;6785;57.918;12.530;2022-12-29T00:57:10;5.40;99.90
13426;DHT22;6785;57.918;12.530;2022-12-29T00:59:38;5.40;99.90
13426;DHT22;6785;57.918;12.530;2022-12-29T01:02:06;5.40;99.90
13426;DHT22;6785;57.918;12.530;2022-12-29T01:04:33;5.40;99.90
13426;DHT22;6785;57.918;12.530;2022-12-29T01:07:01;5.30;99.90
13426;DHT22;6785;57.918;12.530;2022-12-29T01:09:28;5.30;99.90
13426;DHT22;6785;57.918;12.530;2022-12-29T01:12:12;5.30;99.90
13426;DHT22;6785;57.918;12.530;2022-12-29T01:14:39;5.30;99.90
13426;DHT22;6785;57.918;12.530;2022-12-29T01:17:06;5.30;99.90
13426;DHT22;6785;57.918;12.530;2022-12-29T01:19:32;5.30;99.90
13426;DHT22;6785;57.918;12.530;2022-12-29T01:22:00;5.40;99.90
13426;DHT22;6785;57.918;12.530;2022-12-29T01:24:27;5.30;99.90
13426;DHT22;6785;57.918;12.530;2022-12-29T01:26:54;5.40;99.90
13426;DHT22;6785;57.918;12.530;2022-12-29T01:29:22;5.40;99.90
13426;DHT22;6785;57.918;12.530;2022-12-29T01:31:49;5.40;99.90
13426;DHT22;6785;57.918;12.530;2022-12-29T01:34:16;5.40;99.90
13426;DHT22;6785;57.918;12.530;2022-12-29T01:36:42;5.40;99.90
13426;DHT22;6785;57.918;12.530;2022-12-29T01:39:11;5.40;99.90
13426;DHT22;6785;57.918;12.530;2022-12-29T01:41:37;5.40;99.90
13426;DHT22;6785;57.918;12.530;2022-12-29T01:47:04;5.40;99.90
13426;DHT22;6785;57.918;12.530;2022-12-29T01:49:31;5.40;99.90
13426;DHT22;6785;57.918;12.530;2022-12-29T01:52:03;5.40;99.90
13426;DHT22;6785;57.918;12.530;2022-12-29T01:54:35;5.50;99.90
13426;DHT22;6785;57.918;12.530;2022-12-29T01:57:09;5.50;99.90
13426;DHT22;6785;57.918;12.530;2022-12-29T01:59:39;5.50;99.90
13426;DHT22;6785;57.918;12.530;2022-12-29T02:02:08;5.50;99.90
13426;DHT22;6785;57.918;12.530;2022-12-29T02:04:39;5.40;99.90
13426;DHT22;6785;57.918;12.530;2022-12-29T02:07:13;5.50;99.90
13426;DHT22;6785;57.918;12.530;2022-12-29T02:09:43;5.50;99.90
13426;DHT22;6785;57.918;12.530;2022-12-29T02:12:10;5.50;99.90
13426;DHT22;6785;57.918;12.530;2022-12-29T02:14:37;5.50;99.90
13426;DHT22;6785;57.918;12.530;2022-12-29T02:17:10;5.50;99.90
13426;DHT22;6785;57.918;12.530;2022-12-29T02:19:57;5.50;99.90
13426;DHT22;6785;57.918;12.530;2022-12-29T02:22:35;5.50;99.90
13426;DHT22;6785;57.918;12.530;2022-12-29T02:28:33;5.50;99.90
13426;DHT22;6785;57.918;12.530;2022-12-29T02:31:14;5.60;99.90
13426;DHT22;6785;57.918;12.530;2022-12-29T02:33:50;5.60;99.90
13426;DHT22;6785;57.918;12.530;2022-12-29T02:36:24;5.60;99.90
13426;DHT22;6785;57.918;12.530;2022-12-29T02:39:02;5.60;99.90
13426;DHT22;6785;57.918;12.530;2022-12-29T02:41:32;5.60;99.90
13426;DHT22;6785;57.918;12.530;2022-12-29T02:44:04;5.60;99.90
13426;DHT22;6785;57.918;12.530;2022-12-29T02:46:43;5.60;99.90
13426;DHT22;6785;57.918;12.530;2022-12-29T02:49:13;5.60;99.90
13426;DHT22;6785;57.918;12.530;2022-12-29T02:51:44;5.70;99.90
13426;DHT22;6785;57.918;12.530;2022-12-29T02:54:13;5.70;99.90
13426;DHT22;6785;57.918;12.530;2022-12-29T02:56:59;5.70;99.90
13426;DHT22;6785;57.918;12.530;2022-12-29T02:59:26;5.70;99.90
13426;DHT22;6785;57.918;12.530;2022-12-29T03:02:11;5.70;99.90
13426;DHT22;6785;57.918;12.530;2022-12-29T03:04:56;5.70;99.90
13426;DHT22;6785;57.918;12.530;2022-12-29T03:07:35;5.70;99.90
13426;DHT22;6785;57.918;12.530;2022-12-29T03:10:13;5.70;99.90
13426;DHT22;6785;57.918;12.530;2022-12-29T03:12:47;5.80;99.90
13426;DHT22;6785;57.918;12.530;2022-12-29T03:15:34;5.80;99.90
13426;DHT22;6785;57.918;12.530;2022-12-29T03:18:34;5.80;99.90
13426;DHT22;6785;57.918;12.530;2022-12-29T03:21:09;5.80;99.90
13426;DHT22;6785;57.918;12.530;2022-12-29T03:23:39;5.80;99.90
13426;DHT22;6785;57.918;12.530;2022-12-29T03:26:09;5.80;99.90
13426;DHT22;6785;57.918;12.530;2022-12-29T03:28:39;5.90;99.90
13426;DHT22;6785;57.918;12.530;2022-12-29T03:31:08;5.90;99.90
13426;DHT22;6785;57.918;12.530;2022-12-29T03:33:39;5.90;99.90
13426;DHT22;6785;57.918;12.530;2022-12-29T03:36:11;5.80;99.90
13426;DHT22;6785;57.918;12.530;2022-12-29T03:38:44;5.80;99.90
13426;DHT22;6785;57.918;12.530;2022-12-29T03:41:30;5.90;99.90
13426;DHT22;6785;57.918;12.530;2022-12-29T03:43:59;5.90;99.90
13426;DHT22;6785;57.918;12.530;2022-12-29T03:46:26;5.90;99.90
13426;DHT22;6785;57.918;12.530;2022-12-29T03:48:54;5.90;99.90
13426;DHT22;6785;57.918;12.530;2022-12-29T03:51:21;5.90;99.90
13426;DHT22;6785;57.918;12.530;2022-12-29T03:53:47;5.90;99.90
13426;DHT22;6785;57.918;12.530;2022-12-29T03:56:14;6.00;99.90
13426;DHT22;6785;57.918;12.530;2022-12-29T03:58:41;6.00;99.90
13426;DHT22;6785;57.918;12.530;2022-12-29T04:01:07;6.00;99.90
13426;DHT22;6785;57.918;12.530;2022-12-29T04:03:34;6.00;99.90
13426;DHT22;6785;57.918;12.530;2022-12-29T04:06:02;6.00;99.90
13426;DHT22;6785;57.918;12.530;2022-12-29T04:08:29;6.00;99.90
13426;DHT22;6785;57.918;12.530;2022-12-29T04:10:56;6.10;99.90
13426;DHT22;6785;57.918;12.530;2022-12-29T04:13:23;6.10;99.90
13426;DHT22;6785;57.918;12.530;2022-12-29T04:15:49;6.10;99.90
13426;DHT22;6785;57.918;12.530;2022-12-29T04:18:16;6.10;99.90
13426;DHT22;6785;57.918;12.530;2022-12-29T04:20:44;6.10;99.90
13426;DHT22;6785;57.918;12.530;2022-12-29T04:23:28;6.10;99.90
13426;DHT22;6785;57.918;12.530;2022-12-29T04:25:54;6.10;99.90
13426;DHT22;6785;57.918;12.530;2022-12-29T04:28:21;6.10;99.90
13426;DHT22;6785;57.918;12.530;2022-12-29T04:30:48;6.20;99.90
13426;DHT22;6785;57.918;12.530;2022-12-29T04:33:15;6.20;99.90
13426;DHT22;6785;57.918;12.530;2022-12-29T04:35:42;6.20;99.90
13426;DHT22;6785;57.918;12.530;2022-12-29T04:38:09;6.20;99.90
13426;DHT22;6785;57.918;12.530;2022-12-29T04:40:39;6.20;99.90
13426;DHT22;6785;57.918;12.530;2022-12-29T04:43:06;6.20;99.90
13426;DHT22;6785;57.918;12.530;2022-12-29T04:45:33;6.20;99.90
13426;DHT22;6785;57.918;12.530;2022-12-29T04:48:00;6.20;99.90
13426;DHT22;6785;57.918;12.530;2022-12-29T04:50:26;6.20;99.90
13426;DHT22;6785;57.918;12.530;2022-12-29T04:52:54;6.20;99.90
13426;DHT22;6785;57.918;12.530;2022-12-29T04:55:20;6.30;99.90
13426;DHT22;6785;57.918;12.530;2022-12-29T04:57:49;6.30;99.90
13426;DHT22;6785;57.918;12.530;2022-12-29T05:00:16;6.30;99.90
13426;DHT22;6785;57.918;12.530;2022-12-29T05:02:42;6.30;99.90
13426;DHT22;6785;57.918;12.530;2022-12-29T05:05:09;6.30;99.90
13426;DHT22;6785;57.918;12.530;2022-12-29T05:07:36;6.30;99.90
13426;DHT22;6785;57.918;12.530;2022-12-29T05:10:04;6.30;99.90
13426;DHT22;6785;57.918;12.530;2022-12-29T05:12:31;6.30;99.90
13426;DHT22;6785;57.918;12.530;2022-12-29T05:14:59;6.40;99.90
13426;DHT22;6785;57.918;12.530;2022-12-29T05:17:26;6.40;99.90
13426;DHT22;6785;57.918;12.530;2022-12-29T05:19:53;6.40;99.90
13426;DHT22;6785;57.918;12.530;2022-12-29T05:22:19;6.40;99.90
13426;DHT22;6785;57.918;12.530;2022-12-29T05:24:46;6.40;99.90
13426;DHT22;6785;57.918;12.530;2022-12-29T05:27:13;6.50;99.90
13426;DHT22;6785;57.918;12.530;2022-12-29T05:29:41;6.50;99.90
13426;DHT22;6785;57.918;12.530;2022-12-29T05:32:09;6.50;99.90
13426;DHT22;6785;57.918;12.530;2022-12-29T05:34:36;6.50;99.90
13426;DHT22;6785;57.918;12.530;2022-12-29T05:37:03;6.60;99.90
13426;DHT22;6785;57.918;12.530;2022-12-29T05:39:30;6.60;99.90
13426;DHT22;6785;57.918;12.530;2022-12-29T05:41:56;6.60;99.90
13426;DHT22;6785;57.918;12.530;2022-12-29T05:44:23;6.60;99.90
13426;DHT22;6785;57.918;12.530;2022-12-29T05:46:50;6.60;99.90
13426;DHT22;6785;57.918;12.530;2022-12-29T05:49:18;6.70;99.90
13426;DHT22;6785;57.918;12.530;2022-12-29T05:51:44;6.60;99.90
13426;DHT22;6785;57.918;12.530;2022-12-29T05:54:11;6.60;99.90
13426;DHT22;6785;57.918;12.530;2022-12-29T05:56:38;6.70;99.90
13426;DHT22;6785;57.918;12.530;2022-12-29T05:59:04;6.70;99.90
13426;DHT22;6785;57.918;12.530;2022-12-29T06:01:31;6.70;99.90
13426;DHT22;6785;57.918;12.530;2022-12-29T06:03:59;6.70;99.90
13426;DHT22;6785;57.918;12.530;2022-12-29T06:06:27;6.70;99.90
13426;DHT22;6785;57.918;12.530;2022-12-29T06:08:54;6.70;99.90
13426;DHT22;6785;57.918;12.530;2022-12-29T06:11:21;6.70;99.90
13426;DHT22;6785;57.918;12.530;2022-12-29T06:13:47;6.70;99.90
13426;DHT22;6785;57.918;12.530;2022-12-29T06:16:14;6.70;99.90
13426;DHT22;6785;57.918;12.530;2022-12-29T06:18:41;6.70;99.90
13426;DHT22;6785;57.918;12.530;2022-12-29T06:21:08;6.70;99.90
13426;DHT22;6785;57.918;12.530;2022-12-29T06:23:36;6.80;99.90
13426;DHT22;6785;57.918;12.530;2022-12-29T06:26:03;6.80;99.90
13426;DHT22;6785;57.918;12.530;2022-12-29T06:28:29;6.80;99.90
13426;DHT22;6785;57.918;12.530;2022-12-29T06:30:57;6.70;99.90
13426;DHT22;6785;57.918;12.530;2022-12-29T06:33:24;6.80;99.90
13426;DHT22;6785;57.918;12.530;2022-12-29T06:35:51;6.70;99.90
13426;DHT22;6785;57.918;12.530;2022-12-29T06:38:18;6.70;99.90
13426;DHT22;6785;57.918;12.530;2022-12-29T06:40:46;6.80;99.90
13426;DHT22;6785;57.918;12.530;2022-12-29T06:43:12;6.80;99.90
13426;DHT22;6785;57.918;12.530;2022-12-29T06:45:39;6.80;99.90
13426;DHT22;6785;57.918;12.530;2022-12-29T06:48:06;6.80;99.90
13426;DHT22;6785;57.918;12.530;2022-12-29T06:50:33;6.80;99.90
13426;DHT22;6785;57.918;12.530;2022-12-29T06:53:00;6.80;99.90
13426;DHT22;6785;57.918;12.530;2022-12-29T06:55:27;6.80;99.90
13426;DHT22;6785;57.918;12.530;2022-12-29T06:57:56;6.80;99.90
13426;DHT22;6785;57.918;12.530;2022-12-29T07:00:23;6.80;99.90
13426;DHT22;6785;57.918;12.530;2022-12-29T07:02:50;6.80;99.90
13426;DHT22;6785;57.918;12.530;2022-12-29T07:05:17;6.90;99.90
13426;DHT22;6785;57.918;12.530;2022-12-29T07:07:44;6.90;99.90
13426;DHT22;6785;57.918;12.530;2022-12-29T07:10:11;7.00;99.90
13426;DHT22;6785;57.918;12.530;2022-12-29T07:12:38;6.90;99.90
13426;DHT22;6785;57.918;12.530;2022-12-29T07:15:07;7.00;99.90
13426;DHT22;6785;57.918;12.530;2022-12-29T07:17:34;7.00;99.90
13426;DHT22;6785;57.918;12.530;2022-12-29T07:20:00;7.00;99.90
13426;DHT22;6785;57.918;12.530;2022-12-29T07:22:27;7.00;99.90
13426;DHT22;6785;57.918;12.530;2022-12-29T07:24:54;7.00;99.90
13426;DHT22;6785;57.918;12.530;2022-12-29T07:27:23;7.10;99.90
13426;DHT22;6785;57.918;12.530;2022-12-29T07:29:50;7.10;99.90
13426;DHT22;6785;57.918;12.530;2022-12-29T07:32:18;7.10;99.90
13426;DHT22;6785;57.918;12.530;2022-12-29T07:34:45;7.10;99.90
13426;DHT22;6785;57.918;12.530;2022-12-29T07:37:14;7.10;99.90
13426;DHT22;6785;57.918;12.530;2022-12-29T07:39:41;7.10;99.90
13426;DHT22;6785;57.918;12.530;2022-12-29T07:42:08;7.10;99.90
13426;DHT22;6785;57.918;12.530;2022-12-29T07:44:35;7.10;99.90
13426;DHT22;6785;57.918;12.530;2022-12-29T07:47:02;7.10;99.90
13426;DHT22;6785;57.918;12.530;2022-12-29T07:49:30;7.20;99.90
13426;DHT22;6785;57.918;12.530;2022-12-29T07:51:56;7.20;99.90
13426;DHT22;6785;57.918;12.530;2022-12-29T07:54:23;7.20;99.90
13426;DHT22;6785;57.918;12.530;2022-12-29T07:56:51;7.30;99.90
13426;DHT22;6785;57.918;12.530;2022-12-29T07:59:18;7.30;99.90
13426;DHT22;6785;57.918;12.530;2022-12-29T08:01:45;7.30;99.90
13426;DHT22;6785;57.918;12.530;2022-12-29T08:04:12;7.30;99.90
13426;DHT22;6785;57.918;12.530;2022-12-29T08:06:40;7.30;99.90
13426;DHT22;6785;57.918;12.530;2022-12-29T08:09:08;7.30;99.90
13426;DHT22;6785;57.918;12.530;2022-12-29T08:11:34;7.30;99.90
13426;DHT22;6785;57.918;12.530;2022-12-29T08:14:02;7.40;99.90
13426;DHT22;6785;57.918;12.530;2022-12-29T08:16:28;7.40;99.90
13426;DHT22;6785;57.918;12.530;2022-12-29T08:18:56;7.40;99.90
13426;DHT22;6785;57.918;12.530;2022-12-29T08:21:24;7.40;99.90
13426;DHT22;6785;57.918;12.530;2022-12-29T08:23:52;7.50;99.90
13426;DHT22;6785;57.918;12.530;2022-12-29T08:26:19;7.50;99.90
13426;DHT22;6785;57.918;12.530;2022-12-29T08:28:45;7.50;99.90
13426;DHT22;6785;57.918;12.530;2022-12-29T08:31:12;7.50;99.90
13426;DHT22;6785;57.918;12.530;2022-12-29T08:33:41;7.50;99.90
13426;DHT22;6785;57.918;12.530;2022-12-29T08:36:08;7.50;99.90
13426;DHT22;6785;57.918;12.530;2022-12-29T08:38:35;7.50;99.90
13426;DHT22;6785;57.918;12.530;2022-12-29T08:41:03;7.60;99.90
13426;DHT22;6785;57.918;12.530;2022-12-29T08:43:30;7.60;99.90
13426;DHT22;6785;57.918;12.530;2022-12-29T08:45:57;7.60;99.90
13426;DHT22;6785;57.918;12.530;2022-12-29T08:48:24;7.60;99.90
13426;DHT22;6785;57.918;12.530;2022-12-29T08:50:51;7.70;99.90
13426;DHT22;6785;57.918;12.530;2022-12-29T08:53:18;7.70;99.90
13426;DHT22;6785;57.918;12.530;2022-12-29T08:55:45;7.70;99.90
13426;DHT22;6785;57.918;12.530;2022-12-29T08:58:14;7.70;99.90
13426;DHT22;6785;57.918;12.530;2022-12-29T09:00:42;7.70;99.90
13426;DHT22;6785;57.918;12.530;2022-12-29T09:03:08;7.70;99.90
13426;DHT22;6785;57.918;12.530;2022-12-29T09:05:35;7.70;99.90
13426;DHT22;6785;57.918;12.530;2022-12-29T09:08:02;7.70;99.90
13426;DHT22;6785;57.918;12.530;2022-12-29T09:10:30;7.70;99.90
13426;DHT22;6785;57.918;12.530;2022-12-29T09:12:56;7.70;99.90
13426;DHT22;6785;57.918;12.530;2022-12-29T09:15:24;7.70;99.90
13426;DHT22;6785;57.918;12.530;2022-12-29T09:17:51;7.70;99.90
13426;DHT22;6785;57.918;12.530;2022-12-29T09:20:19;7.70;99.90
13426;DHT22;6785;57.918;12.530;2022-12-29T09:22:46;7.70;99.90
13426;DHT22;6785;57.918;12.530;2022-12-29T09:25:14;7.80;99.90
13426;DHT22;6785;57.918;12.530;2022-12-29T09:27:40;7.70;99.90
13426;DHT22;6785;57.918;12.530;2022-12-29T09:30:10;7.80;99.90
13426;DHT22;6785;57.918;12.530;2022-12-29T09:32:38;7.80;99.90
13426;DHT22;6785;57.918;12.530;2022-12-29T09:35:05;7.80;99.90
13426;DHT22;6785;57.918;12.530;2022-12-29T09:37:32;7.80;99.90
13426;DHT22;6785;57.918;12.530;2022-12-29T09:39:59;7.80;99.90
13426;DHT22;6785;57.918;12.530;2022-12-29T09:42:29;7.80;99.90
13426;DHT22;6785;57.918;12.530;2022-12-29T09:45:10;7.80;99.90
13426;DHT22;6785;57.918;12.530;2022-12-29T09:47:40;7.80;99.90
13426;DHT22;6785;57.918;12.530;2022-12-29T09:50:14;7.80;99.90
13426;DHT22;6785;57.918;12.530;2022-12-29T09:52:49;7.80;99.90
13426;DHT22;6785;57.918;12.530;2022-12-29T09:55:20;7.90;99.90
13426;DHT22;6785;57.918;12.530;2022-12-29T09:57:52;7.90;99.90
13426;DHT22;6785;57.918;12.530;2022-12-29T10:00:22;7.90;99.90
13426;DHT22;6785;57.918;12.530;2022-12-29T10:02:54;7.90;99.90
13426;DHT22;6785;57.918;12.530;2022-12-29T10:05:36;7.90;99.90
13426;DHT22;6785;57.918;12.530;2022-12-29T10:08:20;7.90;99.90
13426;DHT22;6785;57.918;12.530;2022-12-29T10:10:54;7.90;99.90
13426;DHT22;6785;57.918;12.530;2022-12-29T10:13:29;7.90;99.90
13426;DHT22;6785;57.918;12.530;2022-12-29T10:16:02;7.90;99.90
13426;DHT22;6785;57.918;12.530;2022-12-29T10:18:51;7.90;99.90
13426;DHT22;6785;57.918;12.530;2022-12-29T10:21:27;7.90;99.90
13426;DHT22;6785;57.918;12.530;2022-12-29T10:23:56;8.00;99.90
13426;DHT22;6785;57.918;12.530;2022-12-29T10:26:27;8.00;99.90
13426;DHT22;6785;57.918;12.530;2022-12-29T10:28:58;8.00;99.90
13426;DHT22;6785;57.918;12.530;2022-12-29T10:31:33;8.00;99.90
13426;DHT22;6785;57.918;12.530;2022-12-29T10:34:07;8.00;99.90
13426;DHT22;6785;57.918;12.530;2022-12-29T10:36:40;8.00;99.90
13426;DHT22;6785;57.918;12.530;2022-12-29T10:39:16;8.00;99.90
13426;DHT22;6785;57.918;12.530;2022-12-29T10:41:48;7.90;99.90
13426;DHT22;6785;57.918;12.530;2022-12-29T10:44:18;8.00;99.90
13426;DHT22;6785;57.918;12.530;2022-12-29T10:46:50;8.00;99.90
13426;DHT22;6785;57.918;12.530;2022-12-29T10:49:19;8.10;99.90
13426;DHT22;6785;57.918;12.530;2022-12-29T10:51:48;8.00;99.90
13426;DHT22;6785;57.918;12.530;2022-12-29T10:54:23;8.00;99.90
13426;DHT22;6785;57.918;12.530;2022-12-29T10:57:24;8.00;99.90
13426;DHT22;6785;57.918;12.530;2022-12-29T10:59:52;8.00;99.90
13426;DHT22;6785;57.918;12.530;2022-12-29T11:02:43;8.00;99.90
13426;DHT22;6785;57.918;12.530;2022-12-29T11:05:18;8.00;99.90
13426;DHT22;6785;57.918;12.530;2022-12-29T11:07:47;7.90;99.90
13426;DHT22;6785;57.918;12.530;2022-12-29T11:10:18;7.90;99.90
13426;DHT22;6785;57.918;12.530;2022-12-29T11:12:57;7.90;99.90
13426;DHT22;6785;57.918;12.530;2022-12-29T11:15:24;7.80;99.90
13426;DHT22;6785;57.918;12.530;2022-12-29T11:17:52;7.80;99.90
13426;DHT22;6785;57.918;12.530;2022-12-29T11:20:28;7.80;99.90
13426;DHT22;6785;57.918;12.530;2022-12-29T11:22:55;7.80;99.90
13426;DHT22;6785;57.918;12.530;2022-12-29T11:25:22;7.80;99.90
13426;DHT22;6785;57.918;12.530;2022-12-29T11:27:59;7.80;99.90
13426;DHT22;6785;57.918;12.530;2022-12-29T11:30:29;7.80;99.90
13426;DHT22;6785;57.918;12.530;2022-12-29T11:32:57;7.90;99.90
13426;DHT22;6785;57.918;12.530;2022-12-29T11:35:33;7.90;99.90
13426;DHT22;6785;57.918;12.530;2022-12-29T11:38:00;7.90;99.90
13426;DHT22;6785;57.918;12.530;2022-12-29T11:40:28;7.90;99.90
13426;DHT22;6785;57.918;12.530;2022-12-29T11:42:59;7.80;99.90
13426;DHT22;6785;57.918;12.530;2022-12-29T11:45:30;7.80;99.90
13426;DHT22;6785;57.918;12.530;2022-12-29T11:47:59;7.80;99.90
13426;DHT22;6785;57.918;12.530;2022-12-29T11:50:28;7.80;99.90
13426;DHT22;6785;57.918;12.530;2022-12-29T11:52:59;7.80;99.90
13426;DHT22;6785;57.918;12.530;2022-12-29T11:55:28;7.90;99.90
13426;DHT22;6785;57.918;12.530;2022-12-29T11:57:58;7.80;99.90
13426;DHT22;6785;57.918;12.530;2022-12-29T12:00:28;7.80;99.90
13426;DHT22;6785;57.918;12.530;2022-12-29T12:02:59;7.80;99.90
13426;DHT22;6785;57.918;12.530;2022-12-29T12:05:36;7.90;99.90
13426;DHT22;6785;57.918;12.530;2022-12-29T12:08:10;7.80;99.90
13426;DHT22;6785;57.918;12.530;2022-12-29T12:10:43;7.80;99.90
13426;DHT22;6785;57.918;12.530;2022-12-29T12:13:19;7.90;99.90
13426;DHT22;6785;57.918;12.530;2022-12-29T12:15:51;7.80;99.90
13426;DHT22;6785;57.918;12.530;2022-12-29T12:18:24;7.80;99.90
13426;DHT22;6785;57.918;12.530;2022-12-29T12:20:56;7.80;99.90
13426;DHT22;6785;57.918;12.530;2022-12-29T12:23:31;7.80;99.90
13426;DHT22;6785;57.918;12.530;2022-12-29T12:26:08;7.80;99.90
13426;DHT22;6785;57.918;12.530;2022-12-29T12:28:46;7.80;99.90
13426;DHT22;6785;57.918;12.530;2022-12-29T12:31:21;7.70;99.90
13426;DHT22;6785;57.918;12.530;2022-12-29T12:33:57;7.70;99.90
13426;DHT22;6785;57.918;12.530;2022-12-29T12:36:49;7.60;99.90
13426;DHT22;6785;57.918;12.530;2022-12-29T12:39:26;7.70;99.90
13426;DHT22;6785;57.918;12.530;2022-12-29T12:42:04;7.70;99.90
13426;DHT22;6785;57.918;12.530;2022-12-29T12:44:40;7.70;99.90
13426;DHT22;6785;57.918;12.530;2022-12-29T12:47:24;7.70;99.90
13426;DHT22;6785;57.918;12.530;2022-12-29T12:52:57;7.60;99.90
13426;DHT22;6785;57.918;12.530;2022-12-29T12:55:40;7.60;99.90
13426;DHT22;6785;57.918;12.530;2022-12-29T12:58:16;7.60;99.90
13426;DHT22;6785;57.918;12.530;2022-12-29T13:00:54;7.60;99.90
13426;DHT22;6785;57.918;12.530;2022-12-29T13:03:31;7.60;99.90
13426;DHT22;6785;57.918;12.530;2022-12-29T13:06:11;7.60;99.90
13426;DHT22;6785;57.918;12.530;2022-12-29T13:08:57;7.60;99.90
13426;DHT22;6785;57.918;12.530;2022-12-29T13:11:44;7.60;99.90
13426;DHT22;6785;57.918;12.530;2022-12-29T13:14:23;7.60;99.90
13426;DHT22;6785;57.918;12.530;2022-12-29T13:17:01;7.60;99.90
13426;DHT22;6785;57.918;12.530;2022-12-29T13:19:34;7.50;99.90
13426;DHT22;6785;57.918;12.530;2022-12-29T13:22:07;7.60;99.90
13426;DHT22;6785;57.918;12.530;2022-12-29T13:24:46;7.60;99.90
13426;DHT22;6785;57.918;12.530;2022-12-29T13:27:17;7.60;99.90
13426;DHT22;6785;57.918;12.530;2022-12-29T13:29:53;7.60;99.90
13426;DHT22;6785;57.918;12.530;2022-12-29T13:32:33;7.60;99.90
13426;DHT22;6785;57.918;12.530;2022-12-29T13:35:11;7.60;99.90
13426;DHT22;6785;57.918;12.530;2022-12-29T13:37:47;7.60;99.90
13426;DHT22;6785;57.918;12.530;2022-12-29T13:40:18;7.60;99.90
13426;DHT22;6785;57.918;12.530;2022-12-29T13:42:47;7.50;99.90
13426;DHT22;6785;57.918;12.530;2022-12-29T13:45:16;7.50;99.90
13426;DHT22;6785;57.918;12.530;2022-12-29T13:47:49;7.60;99.90
13426;DHT22;6785;57.918;12.530;2022-12-29T13:50:19;7.60;99.90
13426;DHT22;6785;57.918;12.530;2022-12-29T13:52:55;7.50;99.90
13426;DHT22;6785;57.918;12.530;2022-12-29T13:55:27;7.50;99.90
13426;DHT22;6785;57.918;12.530;2022-12-29T13:58:00;7.60;99.90
13426;DHT22;6785;57.918;12.530;2022-12-29T14:00:34;7.50;99.90
13426;DHT22;6785;57.918;12.530;2022-12-29T14:03:24;7.50;99.90
13426;DHT22;6785;57.918;12.530;2022-12-29T14:06:05;7.50;99.90
13426;DHT22;6785;57.918;12.530;2022-12-29T14:08:38;7.40;99.90
13426;DHT22;6785;57.918;12.530;2022-12-29T14:11:08;7.40;99.90
13426;DHT22;6785;57.918;12.530;2022-12-29T14:13:38;7.40;99.90
13426;DHT22;6785;57.918;12.530;2022-12-29T14:16:07;7.40;99.90
13426;DHT22;6785;57.918;12.530;2022-12-29T14:18:42;7.40;99.90
13426;DHT22;6785;57.918;12.530;2022-12-29T14:21:18;7.40;99.90
13426;DHT22;6785;57.918;12.530;2022-12-29T14:23:48;7.40;99.90
13426;DHT22;6785;57.918;12.530;2022-12-29T14:26:17;7.40;99.90
13426;DHT22;6785;57.918;12.530;2022-12-29T14:28:48;7.40;99.90
13426;DHT22;6785;57.918;12.530;2022-12-29T14:31:34;7.40;99.90
13426;DHT22;6785;57.918;12.530;2022-12-29T14:34:30;7.30;99.90
13426;DHT22;6785;57.918;12.530;2022-12-29T14:36:58;7.30;99.90
13426;DHT22;6785;57.918;12.530;2022-12-29T14:39:32;7.30;99.90
13426;DHT22;6785;57.918;12.530;2022-12-29T14:42:00;7.30;99.90
13426;DHT22;6785;57.918;12.530;2022-12-29T14:44:27;7.30;99.90
13426;DHT22;6785;57.918;12.530;2022-12-29T14:46:59;7.20;99.90
13426;DHT22;6785;57.918;12.530;2022-12-29T14:49:28;7.20;99.90
13426;DHT22;6785;57.918;12.530;2022-12-29T14:52:07;7.20;99.90
13426;DHT22;6785;57.918;12.530;2022-12-29T14:54:45;7.20;99.90
13426;DHT22;6785;57.918;12.530;2022-12-29T14:57:29;7.20;99.90
13426;DHT22;6785;57.918;12.530;2022-12-29T15:00:05;7.10;99.90
13426;DHT22;6785;57.918;12.530;2022-12-29T15:02:36;7.10;99.90
13426;DHT22;6785;57.918;12.530;2022-12-29T15:05:05;7.10;99.90
13426;DHT22;6785;57.918;12.530;2022-12-29T15:07:34;7.10;99.90
13426;DHT22;6785;57.918;12.530;2022-12-29T15:10:05;7.10;99.90
13426;DHT22;6785;57.918;12.530;2022-12-29T15:12:38;7.10;99.90
13426;DHT22;6785;57.918;12.530;2022-12-29T15:15:20;7.10;99.90
13426;DHT22;6785;57.918;12.530;2022-12-29T15:17:47;7.10;99.90
13426;DHT22;6785;57.918;12.530;2022-12-29T15:20:21;7.10;99.90
13426;DHT22;6785;57.918;12.530;2022-12-29T15:22:54;7.10;99.90
13426;DHT22;6785;57.918;12.530;2022-12-29T15:25:21;7.10;99.90
13426;DHT22;6785;57.918;12.530;2022-12-29T15:27:52;7.10;99.90
13426;DHT22;6785;57.918;12.530;2022-12-29T15:30:20;7.10;99.90
13426;DHT22;6785;57.918;12.530;2022-12-29T15:32:48;7.10;99.90
13426;DHT22;6785;57.918;12.530;2022-12-29T15:35:24;7.10;99.90
13426;DHT22;6785;57.918;12.530;2022-12-29T15:37:52;7.10;99.90
13426;DHT22;6785;57.918;12.530;2022-12-29T15:40:23;7.10;99.90
13426;DHT22;6785;57.918;12.530;2022-12-29T15:42:59;7.00;99.90
13426;DHT22;6785;57.918;12.530;2022-12-29T15:45:34;7.10;99.90
13426;DHT22;6785;57.918;12.530;2022-12-29T15:48:02;7.10;99.90
13426;DHT22;6785;57.918;12.530;2022-12-29T15:50:31;7.10;99.90
13426;DHT22;6785;57.918;12.530;2022-12-29T15:53:01;7.10;99.90
13426;DHT22;6785;57.918;12.530;2022-12-29T15:55:31;7.10;99.90
13426;DHT22;6785;57.918;12.530;2022-12-29T15:58:00;7.10;99.90
13426;DHT22;6785;57.918;12.530;2022-12-29T16:00:29;7.00;99.90
13426;DHT22;6785;57.918;12.530;2022-12-29T16:02:59;7.00;99.90
13426;DHT22;6785;57.918;12.530;2022-12-29T16:05:32;7.00;99.90
13426;DHT22;6785;57.918;12.530;2022-12-29T16:08:00;7.00;99.90
13426;DHT22;6785;57.918;12.530;2022-12-29T16:10:31;6.90;99.90
13426;DHT22;6785;57.918;12.530;2022-12-29T16:13:12;6.90;99.90
13426;DHT22;6785;57.918;12.530;2022-12-29T16:15:45;6.90;99.90
13426;DHT22;6785;57.918;12.530;2022-12-29T16:18:20;6.90;99.90